METAR Data
IDs: Format: Raw Decoded Include TAF

Data at: 0739 UTC 18 Sep 2021

LEBG 180730Z 03007KT 350V050 9999 BKN014 12/10 Q1018